Isabel L — WDF6141 — position and weather

sailwx.info

Track history (hours):
 
Tides and Currents Weather Stations Pressure Air Temp Water Temp Dewpoint Dewpoint Depression Visibility Wind Speed Wind Dir Waves Ship Positions

Isabel L

Owner: SO CAL SHIP SERVICES, TERMINAL ISLAND, CA. More information available from US FCC via Universal Licensing System and Coast Guard Vessel Documentation Center.

Last reported at 2017-Nov-16 18:14 UTC. Time now 2017-Nov-18 19:42 UTC.
Position N 33°43' W 118°07'.

Length 28 m; draft 2 m.

Type: Ship (hazmat cat B). MMSI: 367471080.

Date/timePositionNaut miles runAvg speedWind from/ knotsBaromVisibWave heightAir tempDewpointWater temp
2017-Nov-16 18:14N 33°43' W 118°07'8 7.3
2017-Nov-16 17:11N 33°36' W 118°09'0 0.0
2017-Nov-16 17:00N 33°36' W 118°09'6 7.5
2017-Nov-16 16:15N 33°40' W 118°04'511.4
2017-Nov-16 15:48N 33°44' W 118°06'3 9.6
2017-Nov-16 15:30N 33°41' W 118°07'3 2.7
2017-Nov-16 14:29N 33°44' W 118°06'1 1.2
2017-Nov-16 13:36N 33°43' W 118°07'0 1.0
2017-Nov-16 13:08N 33°44' W 118°07'0 0.5
2017-Nov-16 12:13N 33°43' W 118°07'0 0.0
2017-Nov-16 11:59N 33°43' W 118°07'0 0.0
2017-Nov-16 11:29N 33°43' W 118°07'1 0.1
2017-Nov-16 03:32N 33°44' W 118°06'0 3.5
2017-Nov-16 03:31N 33°44' W 118°06'713.5
2017-Nov-16 03:00N 33°38' W 118°08'6 2.4
2017-Nov-16 00:39N 33°43' W 118°07'2 6.1
2017-Nov-16 00:18N 33°42' W 118°05'2 7.7
2017-Nov-16 00:00N 33°40' W 118°04'4 2.0
2017-Nov-15 21:49N 33°43' W 118°07'0 0.0
2017-Nov-15 21:30N 33°43' W 118°07'0 0.0
2017-Nov-15 21:00N 33°43' W 118°07'4 2.1
2017-Nov-15 19:17N 33°40' W 118°07'414.0
2017-Nov-15 19:00N 33°36' W 118°08'0 0.3
2017-Nov-15 18:30N 33°36' W 118°08'0 0.0
2017-Nov-15 18:00N 33°36' W 118°08'0 0.0
2017-Nov-15 17:28N 33°36' W 118°08'0 0.0
2017-Nov-15 16:39N 33°36' W 118°08'0 0.0
2017-Nov-15 16:25N 33°36' W 118°08'0 0.1
2017-Nov-15 15:57N 33°36' W 118°09'0 0.0
2017-Nov-15 15:30N 33°36' W 118°09'8 6.2
2017-Nov-15 14:17N 33°43' W 118°07'413.3
2017-Nov-15 13:58N 33°40' W 118°04'4 0.6
2017-Nov-15 07:14N 33°43' W 118°07'0 0.0
2017-Nov-15 06:46N 33°43' W 118°07'0 0.6
2017-Nov-15 06:30N 33°43' W 118°07'8 1.1
2017-Nov-14 23:23N 33°36' W 118°09'0 0.0
2017-Nov-14 16:23N 33°36' W 118°09'0 0.2
2017-Nov-14 15:36N 33°36' W 118°08'0 0.0
2017-Nov-14 15:30N 33°36' W 118°08'11 0.9
2017-Nov-14 03:28N 33°44' W 118°16'10 6.0
2017-Nov-14 01:53N 33°41' W 118°05'2 4.2
2017-Nov-14 01:22N 33°43' W 118°07'1 1.7
2017-Nov-14 01:01N 33°44' W 118°07'0 0.9
2017-Nov-14 00:30N 33°44' W 118°06'0 0.2
2017-Nov-13 23:59N 33°44' W 118°06'612.8
2017-Nov-13 23:30N 33°38' W 118°08'4 6.1
2017-Nov-13 22:54N 33°40' W 118°04'4 8.9
2017-Nov-13 22:26N 33°43' W 118°07'0 0.0
2017-Nov-13 21:57N 33°43' W 118°07'0 0.0
2017-Nov-13 00:34N 33°43' W 118°07'0 0.0
2017-Nov-13 00:26N 33°43' W 118°07'0 0.0
2017-Nov-12 23:55N 33°43' W 118°07'0 0.0
2017-Nov-12 23:21N 33°43' W 118°07'0 0.0
2017-Nov-12 23:00N 33°43' W 118°07'0 0.0
2017-Nov-12 21:42N 33°43' W 118°07'0 0.0
2017-Nov-12 21:29N 33°43' W 118°07'8 1.5
2017-Nov-12 15:56N 33°35' W 118°08'1 2.2
2017-Nov-12 15:23N 33°36' W 118°09'6 3.6
2017-Nov-12 13:48N 33°40' W 118°04'414.3
2017-Nov-12 13:30N 33°43' W 118°07'0 0.1
2017-Nov-12 12:11N 33°43' W 118°07'0 0.1
2017-Nov-12 11:59N 33°43' W 118°07'6 0.7
2017-Nov-12 02:52N 33°37' W 118°08'5 3.9
2017-Nov-12 01:38N 33°40' W 118°04'215.5
2017-Nov-12 01:30N 33°42' W 118°06'  
2017-Nov-09 15:00N 33°38' W 118°08'7 0.4
2017-Nov-09 00:18N 33°44' W 118°06'8 0.9
2017-Nov-08 15:03N 33°36' W 118°08'7 1.4
2017-Nov-08 09:51N 33°43' W 118°07'0 0.0
2017-Nov-08 09:23N 33°43' W 118°07'0 0.0
2017-Nov-08 07:05N 33°43' W 118°07'0 0.0
2017-Nov-08 06:57N 33°43' W 118°07'1 0.1
2017-Nov-08 00:46N 33°44' W 118°06'0 0.3
2017-Nov-08 00:30N 33°44' W 118°07'816.1
2017-Nov-08 00:00N 33°36' W 118°08'7 8.8
2017-Nov-07 23:14N 33°42' W 118°05'2 2.0
2017-Nov-07 22:28N 33°43' W 118°07'0 0.0
2017-Nov-07 22:00N 33°43' W 118°07'0 0.0
2017-Nov-07 21:20N 33°43' W 118°07'0 0.0
2017-Nov-07 20:51N 33°43' W 118°07'1 2.6
2017-Nov-07 20:30N 33°44' W 118°07'1 1.7
2017-Nov-07 19:59N 33°43' W 118°07'7 2.3
2017-Nov-07 16:44N 33°36' W 118°08'0 0.0
2017-Nov-07 16:27N 33°36' W 118°08'7 0.8
2017-Nov-07 07:10N 33°43' W 118°07'0 0.0
2017-Nov-07 07:00N 33°43' W 118°07'0 0.0
2017-Nov-07 06:30N 33°43' W 118°07'1 0.1
2017-Nov-06 23:57N 33°42' W 118°07'4 1.7
2017-Nov-06 21:51N 33°40' W 118°04'  
Track history (hours):
 
Tides and Currents Weather Stations Pressure Air Temp Water Temp Dewpoint Dewpoint Depression Visibility Wind Speed Wind Dir Waves Ship Positions

Isabel L

Owner: SO CAL SHIP SERVICES, TERMINAL ISLAND, CA. More information available from US FCC via Universal Licensing System and Coast Guard Vessel Documentation Center.

Last reported at 2017-Nov-16 18:14 UTC. Time now 2017-Nov-18 19:42 UTC.
Position N 33°43' W 118°07'.

Length 28 m; draft 2 m.

Type: Ship (hazmat cat B). MMSI: 367471080.

Date/timePositionNaut miles runAvg speedWind from/ knotsBaromVisibWave heightAir tempDewpointWater temp
2017-Nov-16 18:14N 33°43' W 118°07'8 7.3
2017-Nov-16 17:11N 33°36' W 118°09'0 0.0
2017-Nov-16 17:00N 33°36' W 118°09'6 7.5
2017-Nov-16 16:15N 33°40' W 118°04'511.4
2017-Nov-16 15:48N 33°44' W 118°06'3 9.6
2017-Nov-16 15:30N 33°41' W 118°07'3 2.7
2017-Nov-16 14:29N 33°44' W 118°06'1 1.2
2017-Nov-16 13:36N 33°43' W 118°07'0 1.0
2017-Nov-16 13:08N 33°44' W 118°07'0 0.5
2017-Nov-16 12:13N 33°43' W 118°07'0 0.0
2017-Nov-16 11:59N 33°43' W 118°07'0 0.0
2017-Nov-16 11:29N 33°43' W 118°07'1 0.1
2017-Nov-16 03:32N 33°44' W 118°06'0 3.5
2017-Nov-16 03:31N 33°44' W 118°06'713.5
2017-Nov-16 03:00N 33°38' W 118°08'6 2.4
2017-Nov-16 00:39N 33°43' W 118°07'2 6.1
2017-Nov-16 00:18N 33°42' W 118°05'2 7.7
2017-Nov-16 00:00N 33°40' W 118°04'4 2.0
2017-Nov-15 21:49N 33°43' W 118°07'0 0.0
2017-Nov-15 21:30N 33°43' W 118°07'0 0.0
2017-Nov-15 21:00N 33°43' W 118°07'4 2.1
2017-Nov-15 19:17N 33°40' W 118°07'414.0
2017-Nov-15 19:00N 33°36' W 118°08'0 0.3
2017-Nov-15 18:30N 33°36' W 118°08'0 0.0
2017-Nov-15 18:00N 33°36' W 118°08'0 0.0
2017-Nov-15 17:28N 33°36' W 118°08'0 0.0
2017-Nov-15 16:39N 33°36' W 118°08'0 0.0
2017-Nov-15 16:25N 33°36' W 118°08'0 0.1
2017-Nov-15 15:57N 33°36' W 118°09'0 0.0
2017-Nov-15 15:30N 33°36' W 118°09'8 6.2
2017-Nov-15 14:17N 33°43' W 118°07'413.3
2017-Nov-15 13:58N 33°40' W 118°04'4 0.6
2017-Nov-15 07:14N 33°43' W 118°07'0 0.0
2017-Nov-15 06:46N 33°43' W 118°07'0 0.6
2017-Nov-15 06:30N 33°43' W 118°07'8 1.1
2017-Nov-14 23:23N 33°36' W 118°09'0 0.0
2017-Nov-14 16:23N 33°36' W 118°09'0 0.2
2017-Nov-14 15:36N 33°36' W 118°08'0 0.0
2017-Nov-14 15:30N 33°36' W 118°08'11 0.9
2017-Nov-14 03:28N 33°44' W 118°16'10 6.0
2017-Nov-14 01:53N 33°41' W 118°05'2 4.2
2017-Nov-14 01:22N 33°43' W 118°07'1 1.7
2017-Nov-14 01:01N 33°44' W 118°07'0 0.9
2017-Nov-14 00:30N 33°44' W 118°06'0 0.2
2017-Nov-13 23:59N 33°44' W 118°06'612.8
2017-Nov-13 23:30N 33°38' W 118°08'4 6.1
2017-Nov-13 22:54N 33°40' W 118°04'4 8.9
2017-Nov-13 22:26N 33°43' W 118°07'0 0.0
2017-Nov-13 21:57N 33°43' W 118°07'0 0.0
2017-Nov-13 00:34N 33°43' W 118°07'0 0.0
2017-Nov-13 00:26N 33°43' W 118°07'0 0.0
2017-Nov-12 23:55N 33°43' W 118°07'0 0.0
2017-Nov-12 23:21N 33°43' W 118°07'0 0.0
2017-Nov-12 23:00N 33°43' W 118°07'0 0.0
2017-Nov-12 21:42N 33°43' W 118°07'0 0.0
2017-Nov-12 21:29N 33°43' W 118°07'8 1.5
2017-Nov-12 15:56N 33°35' W 118°08'1 2.2
2017-Nov-12 15:23N 33°36' W 118°09'6 3.6
2017-Nov-12 13:48N 33°40' W 118°04'414.3
2017-Nov-12 13:30N 33°43' W 118°07'0 0.1
2017-Nov-12 12:11N 33°43' W 118°07'0 0.1
2017-Nov-12 11:59N 33°43' W 118°07'6 0.7
2017-Nov-12 02:52N 33°37' W 118°08'5 3.9
2017-Nov-12 01:38N 33°40' W 118°04'215.5
2017-Nov-12 01:30N 33°42' W 118°06'  
2017-Nov-09 15:00N 33°38' W 118°08'7 0.4
2017-Nov-09 00:18N 33°44' W 118°06'8 0.9
2017-Nov-08 15:03N 33°36' W 118°08'7 1.4
2017-Nov-08 09:51N 33°43' W 118°07'0 0.0
2017-Nov-08 09:23N 33°43' W 118°07'0 0.0
2017-Nov-08 07:05N 33°43' W 118°07'0 0.0
2017-Nov-08 06:57N 33°43' W 118°07'1 0.1
2017-Nov-08 00:46N 33°44' W 118°06'0 0.3
2017-Nov-08 00:30N 33°44' W 118°07'816.1
2017-Nov-08 00:00N 33°36' W 118°08'7 8.8
2017-Nov-07 23:14N 33°42' W 118°05'2 2.0
2017-Nov-07 22:28N 33°43' W 118°07'0 0.0
2017-Nov-07 22:00N 33°43' W 118°07'0 0.0
2017-Nov-07 21:20N 33°43' W 118°07'0 0.0
2017-Nov-07 20:51N 33°43' W 118°07'1 2.6
2017-Nov-07 20:30N 33°44' W 118°07'1 1.7
2017-Nov-07 19:59N 33°43' W 118°07'7 2.3
2017-Nov-07 16:44N 33°36' W 118°08'0 0.0
2017-Nov-07 16:27N 33°36' W 118°08'7 0.8
2017-Nov-07 07:10N 33°43' W 118°07'0 0.0
2017-Nov-07 07:00N 33°43' W 118°07'0 0.0
2017-Nov-07 06:30N 33°43' W 118°07'1 0.1
2017-Nov-06 23:57N 33°42' W 118°07'4 1.7
2017-Nov-06 21:51N 33°40' W 118°04'  

Dump ship's entire track history